Time,TemperatureF,DewpointF,PressureIn,WindDirection,WindDirectionDegrees,WindSpeedMPH,WindSpeedGustMPH,Humidity,HourlyPrecipIn,Conditions,Clouds,dailyrainin,SolarRadiationWatts/m^2,SoftwareType,DateUTC
2013-06-24 00:03:00,52.0,44.0,-100.00,WNW,301,7.0,15.0,75,0.00,,,0.15,6.900000,,2013-06-24 08:03:00,
2013-06-24 00:13:00,52.0,44.0,-100.00,WNW,301,7.0,15.0,75,0.00,,,0.15,6.900000,,2013-06-24 08:13:00,
2013-06-24 00:23:00,52.0,44.0,-100.00,WNW,301,7.0,15.0,75,0.00,,,0.15,6.900000,,2013-06-24 08:23:00,
2013-06-24 00:55:00,53.0,42.0,-100.00,NE,53,6.0,26.0,66,0.00,,,0.14,1.200000,,2013-06-24 08:55:00,
2013-06-24 01:04:00,53.0,42.0,-100.00,NE,53,6.0,26.0,66,0.00,,,0.14,1.200000,,2013-06-24 09:04:00,
2013-06-24 01:13:00,53.0,42.0,-100.00,NE,53,6.0,26.0,66,0.00,,,0.14,1.200000,,2013-06-24 09:13:00,
2013-06-24 01:23:00,53.0,42.0,-100.00,NE,53,6.0,26.0,66,0.00,,,0.14,1.200000,,2013-06-24 09:23:00,
2013-06-24 01:59:00,52.0,43.0,-100.00,ESE,111,3.0,16.0,70,0.00,,,0.13,0.800000,,2013-06-24 09:59:00,
2013-06-24 02:13:00,52.0,43.0,-100.00,ESE,111,3.0,16.0,70,0.00,,,0.13,0.800000,,2013-06-24 10:13:00,
2013-06-24 02:22:00,52.0,43.0,-100.00,ESE,111,3.0,16.0,70,0.00,,,0.13,0.800000,,2013-06-24 10:22:00,
2013-06-24 02:57:00,50.0,43.0,-100.00,West,270,2.0,9.0,77,0.00,,,0.13,0.800000,,2013-06-24 10:57:00,
2013-06-24 03:02:00,50.0,43.0,-100.00,West,270,2.0,9.0,77,0.00,,,0.13,0.800000,,2013-06-24 11:02:00,
2013-06-24 03:13:00,50.0,43.0,-100.00,West,270,2.0,9.0,77,0.00,,,0.13,0.800000,,2013-06-24 11:13:00,
2013-06-24 03:25:00,50.0,43.0,-100.00,West,270,2.0,9.0,77,0.00,,,0.13,0.800000,,2013-06-24 11:25:00,
2013-06-24 03:56:00,50.0,44.0,-100.00,NNW,337,2.0,7.0,79,0.00,,,0.13,0.800000,,2013-06-24 11:56:00,
2013-06-24 04:03:00,50.0,44.0,-100.00,NNW,337,2.0,7.0,79,0.00,,,0.13,0.800000,,2013-06-24 12:03:00,
2013-06-24 04:14:00,50.0,44.0,-100.00,NNW,337,2.0,7.0,79,0.00,,,0.13,0.800000,,2013-06-24 12:14:00,
2013-06-24 04:55:00,50.0,43.0,-100.00,North,358,4.0,21.0,76,0.00,,,0.10,0.800000,,2013-06-24 12:55:00,
2013-06-24 05:04:00,50.0,43.0,-100.00,North,358,4.0,21.0,76,0.00,,,0.10,0.800000,,2013-06-24 13:04:00,
2013-06-24 05:13:00,50.0,43.0,-100.00,North,358,4.0,21.0,76,0.00,,,0.10,0.800000,,2013-06-24 13:13:00,
2013-06-24 05:22:00,50.0,43.0,-100.00,North,358,4.0,21.0,76,0.00,,,0.10,0.800000,,2013-06-24 13:22:00,
2013-06-24 06:13:00,51.0,45.0,-100.00,NE,39,4.0,59.0,78,0.00,,,0.07,2.400000,,2013-06-24 14:13:00,
2013-06-24 06:22:00,51.0,45.0,-100.00,NE,39,4.0,59.0,78,0.00,,,0.07,2.400000,,2013-06-24 14:22:00,
2013-06-24 06:59:00,52.0,43.0,-100.00,NNE,27,5.0,12.0,70,0.00,,,0.03,20.100000,,2013-06-24 14:59:00,
2013-06-24 07:12:00,52.0,43.0,-100.00,NNE,27,5.0,12.0,70,0.00,,,0.03,20.100000,,2013-06-24 15:12:00,
2013-06-24 07:57:00,53.0,42.0,-100.00,NW,307,3.0,11.0,67,0.00,,,0.01,46.500000,,2013-06-24 15:57:00,
2013-06-24 08:02:00,53.0,42.0,-100.00,NW,307,3.0,11.0,67,0.00,,,0.01,46.500000,,2013-06-24 16:02:00,
2013-06-24 08:23:00,53.0,42.0,-100.00,NW,307,3.0,11.0,67,0.00,,,0.01,46.500000,,2013-06-24 16:23:00,
2013-06-24 08:56:00,53.0,42.0,-100.00,ESE,123,3.0,47.0,65,0.00,,,0.01,96.300003,,2013-06-24 16:56:00,
2013-06-24 09:03:00,53.0,42.0,-100.00,ESE,123,3.0,47.0,65,0.00,,,0.01,96.300003,,2013-06-24 17:03:00,
2013-06-24 09:23:00,53.0,42.0,-100.00,ESE,123,3.0,47.0,65,0.00,,,0.01,96.300003,,2013-06-24 17:23:00,
2013-06-24 09:57:00,54.0,46.0,-100.00,SSE,153,2.0,41.0,75,0.00,,,0.00,126.500000,,2013-06-24 17:57:00,
2013-06-24 10:02:00,54.0,46.0,-100.00,SSE,153,2.0,41.0,75,0.00,,,0.00,126.500000,,2013-06-24 18:02:00,
2013-06-24 10:14:00,54.0,46.0,-100.00,SSE,153,2.0,41.0,75,0.00,,,0.00,126.500000,,2013-06-24 18:14:00,
2013-06-24 10:23:00,54.0,46.0,-100.00,SSE,153,2.0,41.0,75,0.00,,,0.00,126.500000,,2013-06-24 18:23:00,
2013-06-24 11:04:00,57.0,46.0,-100.00,ENE,77,3.0,36.0,65,0.00,,,0.00,399.299988,,2013-06-24 19:04:00,
2013-06-24 11:12:00,57.0,46.0,-100.00,ENE,77,3.0,36.0,65,0.00,,,0.00,399.299988,,2013-06-24 19:12:00,
2013-06-24 11:24:00,57.0,46.0,-100.00,ENE,77,3.0,36.0,65,0.00,,,0.00,399.299988,,2013-06-24 19:24:00,
2013-06-24 12:11:00,58.0,47.0,-100.00,West,264,4.0,42.0,67,0.00,,,0.00,434.200012,,2013-06-24 20:11:00,
2013-06-24 12:22:00,58.0,47.0,-100.00,West,264,4.0,42.0,67,0.00,,,0.00,434.200012,,2013-06-24 20:22:00,
2013-06-24 13:03:00,62.0,48.0,-100.00,West,266,2.0,135.0,60,0.00,,,0.00,668.299988,,2013-06-24 21:03:00,
2013-06-24 13:12:00,62.0,48.0,-100.00,West,266,2.0,135.0,60,0.00,,,0.00,668.299988,,2013-06-24 21:12:00,
2013-06-24 13:23:00,62.0,48.0,-100.00,West,266,2.0,135.0,60,0.00,,,0.00,668.299988,,2013-06-24 21:23:00,
2013-06-24 13:54:00,64.0,47.0,-100.00,West,278,4.0,35.0,54,0.00,,,0.00,793.500000,,2013-06-24 21:54:00,
2013-06-24 14:04:00,64.0,47.0,-100.00,West,278,4.0,35.0,54,0.00,,,0.00,793.500000,,2013-06-24 22:04:00,
2013-06-24 14:13:00,64.0,47.0,-100.00,West,278,4.0,35.0,54,0.00,,,0.00,793.500000,,2013-06-24 22:13:00,
2013-06-24 14:22:00,64.0,47.0,-100.00,West,278,4.0,35.0,54,0.00,,,0.00,793.500000,,2013-06-24 22:22:00,
2013-06-24 14:56:00,65.0,46.0,-100.00,West,259,4.0,112.0,50,0.00,,,0.00,814.599976,,2013-06-24 22:56:00,
2013-06-24 15:03:00,65.0,46.0,-100.00,West,259,4.0,112.0,50,0.00,,,0.00,814.599976,,2013-06-24 23:03:00,
2013-06-24 15:11:00,65.0,46.0,-100.00,West,259,4.0,112.0,50,0.00,,,0.00,814.599976,,2013-06-24 23:11:00,
2013-06-24 15:23:00,65.0,46.0,-100.00,West,259,4.0,112.0,50,0.00,,,0.00,814.599976,,2013-06-24 23:23:00,
2013-06-24 15:54:00,67.0,47.0,-100.00,ESE,118,2.0,34.0,48,0.00,,,0.00,822.500000,,2013-06-24 23:54:00,
2013-06-24 16:02:00,67.0,47.0,-100.00,ESE,118,2.0,34.0,48,0.00,,,0.00,822.500000,,2013-06-25 00:02:00,
2013-06-24 16:12:00,67.0,47.0,-100.00,ESE,118,2.0,34.0,48,0.00,,,0.00,822.500000,,2013-06-25 00:12:00,
2013-06-24 16:22:00,67.0,47.0,-100.00,ESE,118,2.0,34.0,48,0.00,,,0.00,822.500000,,2013-06-25 00:22:00,
2013-06-24 17:03:00,63.0,45.0,-100.00,ESE,118,2.0,9.0,52,0.00,,,0.00,662.900024,,2013-06-25 01:03:00,
2013-06-24 18:02:00,67.0,48.0,-100.00,West,277,3.0,62.0,49,0.00,,,0.00,639.400024,,2013-06-25 02:02:00,
2013-06-24 18:23:00,67.0,48.0,-100.00,West,277,3.0,62.0,49,0.00,,,0.00,639.400024,,2013-06-25 02:23:00,
2013-06-24 18:56:00,67.0,47.0,-100.00,West,273,4.0,12.0,49,0.00,,,0.00,558.900024,,2013-06-25 02:56:00,
2013-06-24 19:04:00,67.0,47.0,-100.00,West,273,4.0,12.0,49,0.00,,,0.00,558.900024,,2013-06-25 03:04:00,
2013-06-24 19:12:00,67.0,47.0,-100.00,West,273,4.0,12.0,49,0.00,,,0.00,558.900024,,2013-06-25 03:12:00,
2013-06-24 20:01:00,67.0,48.0,-100.00,WSW,253,4.0,13.0,51,0.00,,,0.00,429.000000,,2013-06-25 04:01:00,
2013-06-24 20:11:00,67.0,48.0,-100.00,WSW,253,4.0,13.0,51,0.00,,,0.00,429.000000,,2013-06-25 04:11:00,
2013-06-24 20:22:00,67.0,48.0,-100.00,WSW,253,4.0,13.0,51,0.00,,,0.00,429.000000,,2013-06-25 04:22:00,
2013-06-24 20:52:00,68.0,46.0,-100.00,NNW,333,2.0,43.0,46,0.00,,,0.00,304.100006,,2013-06-25 04:52:00,
2013-06-24 21:01:00,68.0,46.0,-100.00,NNW,333,2.0,43.0,46,0.00,,,0.00,304.100006,,2013-06-25 05:01:00,
2013-06-24 21:11:00,68.0,46.0,-100.00,NNW,333,2.0,43.0,46,0.00,,,0.00,304.100006,,2013-06-25 05:11:00,
2013-06-24 21:22:00,68.0,46.0,-100.00,NNW,333,2.0,43.0,46,0.00,,,0.00,304.100006,,2013-06-25 05:22:00,
2013-06-24 21:52:00,65.0,44.0,-100.00,NE,56,1.0,59.0,45,0.00,,,0.00,175.899994,,2013-06-25 05:52:00,
2013-06-24 22:01:00,65.0,44.0,-100.00,NE,56,1.0,59.0,45,0.00,,,0.00,175.899994,,2013-06-25 06:01:00,
2013-06-24 22:11:00,65.0,44.0,-100.00,NE,56,1.0,59.0,45,0.00,,,0.00,175.899994,,2013-06-25 06:11:00,
2013-06-24 22:21:00,65.0,44.0,-100.00,NE,56,1.0,59.0,45,0.00,,,0.00,175.899994,,2013-06-25 06:21:00,
2013-06-24 22:52:00,60.0,42.0,-100.00,NE,49,3.0,27.0,52,0.00,,,0.00,18.700001,,2013-06-25 06:52:00,
2013-06-24 23:02:00,60.0,42.0,-100.00,NE,49,3.0,27.0,52,0.00,,,0.00,18.700001,,2013-06-25 07:02:00,
2013-06-24 23:11:00,60.0,42.0,-100.00,NE,49,3.0,27.0,52,0.00,,,0.00,18.700001,,2013-06-25 07:11:00,
2013-06-24 23:22:00,60.0,42.0,-100.00,NE,49,3.0,27.0,52,0.00,,,0.00,18.700001,,2013-06-25 07:22:00,
2013-06-24 23:52:00,60.0,41.0,-100.00,NE,34,4.0,11.0,50,0.00,,,0.00,9.700000,,2013-06-25 07:52:00,